sensor_id;sensor_type;location;lat;lon;timestamp;pressure;altitude;pressure_sealevel;temperature;humidity
7333;BME280;3707;43.618;25.342;2022-09-03T00:00:12;99901.47;;;19.41;100.00
7333;BME280;3707;43.618;25.342;2022-09-03T00:02:41;99905.75;;;19.46;100.00
7333;BME280;3707;43.618;25.342;2022-09-03T00:05:16;99911.63;;;19.57;100.00
7333;BME280;3707;43.618;25.342;2022-09-03T00:07:50;99919.97;;;19.74;100.00
7333;BME280;3707;43.618;25.342;2022-09-03T00:10:25;99926.13;;;19.73;100.00
7333;BME280;3707;43.618;25.342;2022-09-03T00:12:58;99888.53;;;19.33;100.00
7333;BME280;3707;43.618;25.342;2022-09-03T00:15:28;99934.63;;;19.48;100.00
7333;BME280;3707;43.618;25.342;2022-09-03T00:18:01;99920.19;;;19.28;100.00
7333;BME280;3707;43.618;25.342;2022-09-03T00:20:32;99906.25;;;19.25;100.00
7333;BME280;3707;43.618;25.342;2022-09-03T00:23:04;99941.03;;;19.36;100.00
7333;BME280;3707;43.618;25.342;2022-09-03T00:25:36;99924.66;;;19.23;100.00
7333;BME280;3707;43.618;25.342;2022-09-03T00:28:14;99932.91;;;19.08;100.00
7333;BME280;3707;43.618;25.342;2022-09-03T00:30:45;99945.50;;;19.33;100.00
7333;BME280;3707;43.618;25.342;2022-09-03T00:33:17;99940.34;;;19.28;100.00
7333;BME280;3707;43.618;25.342;2022-09-03T00:35:50;99866.69;;;18.93;100.00
7333;BME280;3707;43.618;25.342;2022-09-03T00:38:19;99952.22;;;19.47;100.00
7333;BME280;3707;43.618;25.342;2022-09-03T00:40:58;99933.31;;;19.28;100.00
7333;BME280;3707;43.618;25.342;2022-09-03T00:43:40;99960.47;;;19.29;100.00
7333;BME280;3707;43.618;25.342;2022-09-03T00:46:18;99948.41;;;19.20;100.00
7333;BME280;3707;43.618;25.342;2022-09-03T00:49:07;99951.16;;;19.14;100.00
7333;BME280;3707;43.618;25.342;2022-09-03T00:51:40;99956.03;;;19.33;100.00
7333;BME280;3707;43.618;25.342;2022-09-03T00:54:14;99965.22;;;19.53;100.00
7333;BME280;3707;43.618;25.342;2022-09-03T00:56:47;99964.72;;;19.35;100.00
7333;BME280;3707;43.618;25.342;2022-09-03T00:59:26;99972.47;;;19.42;100.00
7333;BME280;3707;43.618;25.342;2022-09-03T01:02:05;99967.44;;;19.30;100.00
7333;BME280;3707;43.618;25.342;2022-09-03T01:04:41;99963.75;;;19.39;100.00
7333;BME280;3707;43.618;25.342;2022-09-03T01:07:18;99965.00;;;19.22;100.00
7333;BME280;3707;43.618;25.342;2022-09-03T01:09:58;99966.22;;;19.08;100.00
7333;BME280;3707;43.618;25.342;2022-09-03T01:12:32;99960.72;;;19.18;100.00
7333;BME280;3707;43.618;25.342;2022-09-03T01:15:08;99968.84;;;19.06;100.00
7333;BME280;3707;43.618;25.342;2022-09-03T01:17:50;99960.22;;;19.01;100.00
7333;BME280;3707;43.618;25.342;2022-09-03T01:20:26;99976.66;;;19.11;100.00
7333;BME280;3707;43.618;25.342;2022-09-03T01:23:34;99972.44;;;19.02;100.00
7333;BME280;3707;43.618;25.342;2022-09-03T01:26:18;99937.66;;;18.47;100.00
7333;BME280;3707;43.618;25.342;2022-09-03T01:29:01;99971.28;;;18.74;100.00
7333;BME280;3707;43.618;25.342;2022-09-03T01:31:36;99981.78;;;18.75;100.00
7333;BME280;3707;43.618;25.342;2022-09-03T01:34:16;99960.63;;;18.34;100.00
7333;BME280;3707;43.618;25.342;2022-09-03T01:36:53;99979.38;;;18.63;100.00
7333;BME280;3707;43.618;25.342;2022-09-03T01:39:30;99984.81;;;18.54;100.00
7333;BME280;3707;43.618;25.342;2022-09-03T01:42:07;99966.50;;;18.51;100.00
7333;BME280;3707;43.618;25.342;2022-09-03T01:44:57;99988.84;;;18.72;100.00
7333;BME280;3707;43.618;25.342;2022-09-03T01:47:36;99994.16;;;18.69;100.00
7333;BME280;3707;43.618;25.342;2022-09-03T01:50:12;99995.66;;;18.80;100.00
7333;BME280;3707;43.618;25.342;2022-09-03T01:52:51;99956.81;;;18.52;100.00
7333;BME280;3707;43.618;25.342;2022-09-03T01:55:28;99991.56;;;18.66;100.00
7333;BME280;3707;43.618;25.342;2022-09-03T01:57:59;99977.09;;;18.44;100.00
7333;BME280;3707;43.618;25.342;2022-09-03T02:00:30;99992.00;;;18.43;100.00
7333;BME280;3707;43.618;25.342;2022-09-03T02:03:01;99996.38;;;18.41;100.00
7333;BME280;3707;43.618;25.342;2022-09-03T02:05:30;99996.94;;;18.61;100.00
7333;BME280;3707;43.618;25.342;2022-09-03T02:07:59;99999.34;;;18.72;100.00
7333;BME280;3707;43.618;25.342;2022-09-03T02:10:29;99984.63;;;18.63;100.00
7333;BME280;3707;43.618;25.342;2022-09-03T02:13:01;99988.78;;;18.75;100.00
7333;BME280;3707;43.618;25.342;2022-09-03T02:15:32;99996.13;;;18.58;100.00
7333;BME280;3707;43.618;25.342;2022-09-03T02:18:03;99983.09;;;18.50;100.00
7333;BME280;3707;43.618;25.342;2022-09-03T02:20:31;99999.75;;;18.49;100.00
7333;BME280;3707;43.618;25.342;2022-09-03T02:22:58;100011.06;;;18.54;100.00
7333;BME280;3707;43.618;25.342;2022-09-03T02:25:29;100010.94;;;18.62;100.00
7333;BME280;3707;43.618;25.342;2022-09-03T02:27:59;100002.56;;;18.40;100.00
7333;BME280;3707;43.618;25.342;2022-09-03T02:30:26;99978.94;;;18.39;100.00
7333;BME280;3707;43.618;25.342;2022-09-03T02:32:54;100001.19;;;18.67;100.00
7333;BME280;3707;43.618;25.342;2022-09-03T02:35:22;99989.50;;;18.36;100.00
7333;BME280;3707;43.618;25.342;2022-09-03T02:37:48;100018.13;;;18.51;100.00
7333;BME280;3707;43.618;25.342;2022-09-03T02:40:15;99994.81;;;18.32;100.00
7333;BME280;3707;43.618;25.342;2022-09-03T02:42:42;100003.75;;;18.21;100.00
7333;BME280;3707;43.618;25.342;2022-09-03T02:45:19;100015.50;;;18.49;100.00
7333;BME280;3707;43.618;25.342;2022-09-03T02:47:51;100015.63;;;18.42;100.00
7333;BME280;3707;43.618;25.342;2022-09-03T02:50:22;100016.44;;;18.47;100.00
7333;BME280;3707;43.618;25.342;2022-09-03T02:52:49;100018.97;;;18.53;100.00
7333;BME280;3707;43.618;25.342;2022-09-03T02:55:16;100015.38;;;18.58;100.00
7333;BME280;3707;43.618;25.342;2022-09-03T02:57:44;100017.38;;;18.43;100.00
7333;BME280;3707;43.618;25.342;2022-09-03T03:00:13;100015.53;;;18.48;100.00
7333;BME280;3707;43.618;25.342;2022-09-03T03:02:40;100001.94;;;18.24;100.00
7333;BME280;3707;43.618;25.342;2022-09-03T03:05:08;100007.94;;;18.32;100.00
7333;BME280;3707;43.618;25.342;2022-09-03T03:07:41;99925.59;;;17.88;100.00
7333;BME280;3707;43.618;25.342;2022-09-03T03:10:09;99990.63;;;18.19;100.00
7333;BME280;3707;43.618;25.342;2022-09-03T03:12:37;100014.06;;;18.33;100.00
7333;BME280;3707;43.618;25.342;2022-09-03T03:15:05;100012.94;;;18.46;100.00
7333;BME280;3707;43.618;25.342;2022-09-03T03:17:32;100006.03;;;18.41;100.00
7333;BME280;3707;43.618;25.342;2022-09-03T03:19:59;100014.53;;;18.56;100.00
7333;BME280;3707;43.618;25.342;2022-09-03T03:22:25;100012.84;;;18.52;100.00
7333;BME280;3707;43.618;25.342;2022-09-03T03:24:54;100009.69;;;18.32;100.00
7333;BME280;3707;43.618;25.342;2022-09-03T03:27:22;100005.31;;;18.31;100.00
7333;BME280;3707;43.618;25.342;2022-09-03T03:29:49;100001.13;;;18.22;100.00
7333;BME280;3707;43.618;25.342;2022-09-03T03:32:16;99998.75;;;18.06;100.00
7333;BME280;3707;43.618;25.342;2022-09-03T03:34:43;99997.75;;;18.13;100.00
7333;BME280;3707;43.618;25.342;2022-09-03T03:37:10;99992.44;;;18.16;100.00
7333;BME280;3707;43.618;25.342;2022-09-03T03:39:36;100000.81;;;18.39;100.00
7333;BME280;3707;43.618;25.342;2022-09-03T03:42:05;100000.13;;;18.26;100.00
7333;BME280;3707;43.618;25.342;2022-09-03T03:44:32;100000.88;;;18.34;100.00
7333;BME280;3707;43.618;25.342;2022-09-03T03:46:58;100007.94;;;18.31;100.00
7333;BME280;3707;43.618;25.342;2022-09-03T03:49:25;100011.69;;;18.18;100.00
7333;BME280;3707;43.618;25.342;2022-09-03T03:51:52;99990.75;;;18.15;100.00
7333;BME280;3707;43.618;25.342;2022-09-03T03:54:19;100010.00;;;18.12;100.00
7333;BME280;3707;43.618;25.342;2022-09-03T03:56:46;100017.56;;;18.32;100.00
7333;BME280;3707;43.618;25.342;2022-09-03T03:59:14;100020.72;;;18.54;100.00
7333;BME280;3707;43.618;25.342;2022-09-03T04:01:41;100024.38;;;18.44;100.00
7333;BME280;3707;43.618;25.342;2022-09-03T04:04:08;100030.47;;;18.44;100.00
7333;BME280;3707;43.618;25.342;2022-09-03T04:06:35;100022.94;;;18.24;100.00
7333;BME280;3707;43.618;25.342;2022-09-03T04:09:02;100030.13;;;18.13;100.00
7333;BME280;3707;43.618;25.342;2022-09-03T04:11:29;100035.41;;;18.12;100.00
7333;BME280;3707;43.618;25.342;2022-09-03T04:13:56;100018.97;;;18.01;100.00
7333;BME280;3707;43.618;25.342;2022-09-03T04:16:25;100034.19;;;18.31;100.00
7333;BME280;3707;43.618;25.342;2022-09-03T04:18:53;100028.25;;;18.21;100.00
7333;BME280;3707;43.618;25.342;2022-09-03T04:21:22;99999.31;;;18.24;100.00
7333;BME280;3707;43.618;25.342;2022-09-03T04:23:50;100039.44;;;18.32;100.00
7333;BME280;3707;43.618;25.342;2022-09-03T04:26:19;100050.69;;;18.38;100.00
7333;BME280;3707;43.618;25.342;2022-09-03T04:28:46;100017.78;;;17.65;100.00
7333;BME280;3707;43.618;25.342;2022-09-03T04:31:15;100047.09;;;17.91;100.00
7333;BME280;3707;43.618;25.342;2022-09-03T04:33:43;100051.16;;;18.10;100.00
7333;BME280;3707;43.618;25.342;2022-09-03T04:36:12;100044.00;;;18.21;100.00
7333;BME280;3707;43.618;25.342;2022-09-03T04:38:40;100059.56;;;18.30;100.00
7333;BME280;3707;43.618;25.342;2022-09-03T04:41:09;100057.34;;;18.06;100.00
7333;BME280;3707;43.618;25.342;2022-09-03T04:43:36;100057.22;;;18.15;100.00
7333;BME280;3707;43.618;25.342;2022-09-03T04:46:04;100040.84;;;18.01;100.00
7333;BME280;3707;43.618;25.342;2022-09-03T04:48:33;100055.72;;;18.01;100.00
7333;BME280;3707;43.618;25.342;2022-09-03T04:51:03;100067.44;;;18.30;100.00
7333;BME280;3707;43.618;25.342;2022-09-03T04:53:31;100063.31;;;18.17;100.00
7333;BME280;3707;43.618;25.342;2022-09-03T04:55:58;100069.75;;;17.97;100.00
7333;BME280;3707;43.618;25.342;2022-09-03T04:58:25;100009.97;;;17.59;100.00
7333;BME280;3707;43.618;25.342;2022-09-03T05:00:52;100078.50;;;17.97;100.00
7333;BME280;3707;43.618;25.342;2022-09-03T05:03:19;100055.94;;;17.84;100.00
7333;BME280;3707;43.618;25.342;2022-09-03T05:05:52;100070.34;;;18.14;100.00
7333;BME280;3707;43.618;25.342;2022-09-03T05:08:20;100040.84;;;17.98;100.00
7333;BME280;3707;43.618;25.342;2022-09-03T05:10:47;100040.25;;;17.82;100.00
7333;BME280;3707;43.618;25.342;2022-09-03T05:13:14;100082.81;;;18.01;100.00
7333;BME280;3707;43.618;25.342;2022-09-03T05:15:42;100091.50;;;18.03;100.00
7333;BME280;3707;43.618;25.342;2022-09-03T05:18:10;100093.06;;;18.16;100.00
7333;BME280;3707;43.618;25.342;2022-09-03T05:20:37;100083.81;;;18.48;100.00
7333;BME280;3707;43.618;25.342;2022-09-03T05:23:04;100070.63;;;17.97;100.00
7333;BME280;3707;43.618;25.342;2022-09-03T05:25:33;100081.13;;;17.97;100.00
7333;BME280;3707;43.618;25.342;2022-09-03T05:27:59;100088.94;;;17.99;100.00
7333;BME280;3707;43.618;25.342;2022-09-03T05:30:27;100094.84;;;18.14;100.00
7333;BME280;3707;43.618;25.342;2022-09-03T05:32:55;100094.78;;;18.17;100.00
7333;BME280;3707;43.618;25.342;2022-09-03T05:35:22;100087.84;;;18.13;100.00
7333;BME280;3707;43.618;25.342;2022-09-03T05:37:53;100102.59;;;18.22;100.00
7333;BME280;3707;43.618;25.342;2022-09-03T05:40:20;100085.19;;;18.16;100.00
7333;BME280;3707;43.618;25.342;2022-09-03T05:42:53;100082.31;;;18.31;100.00
7333;BME280;3707;43.618;25.342;2022-09-03T05:45:21;100092.69;;;18.38;100.00
7333;BME280;3707;43.618;25.342;2022-09-03T05:47:48;100093.53;;;18.41;100.00
7333;BME280;3707;43.618;25.342;2022-09-03T05:50:15;100116.63;;;18.19;100.00
7333;BME280;3707;43.618;25.342;2022-09-03T05:52:42;100112.47;;;18.06;100.00
7333;BME280;3707;43.618;25.342;2022-09-03T05:55:09;100127.34;;;18.06;100.00
7333;BME280;3707;43.618;25.342;2022-09-03T05:57:36;100126.50;;;18.02;100.00
7333;BME280;3707;43.618;25.342;2022-09-03T06:00:05;100118.31;;;18.23;100.00
7333;BME280;3707;43.618;25.342;2022-09-03T06:02:32;100120.09;;;18.21;100.00
7333;BME280;3707;43.618;25.342;2022-09-03T06:04:59;100105.19;;;18.23;100.00
7333;BME280;3707;43.618;25.342;2022-09-03T06:07:26;100125.13;;;18.35;100.00
7333;BME280;3707;43.618;25.342;2022-09-03T06:09:53;100133.56;;;18.55;100.00
7333;BME280;3707;43.618;25.342;2022-09-03T06:12:20;100139.50;;;18.68;100.00
7333;BME280;3707;43.618;25.342;2022-09-03T06:14:47;100142.31;;;18.56;100.00
7333;BME280;3707;43.618;25.342;2022-09-03T06:17:15;100139.41;;;18.74;100.00
7333;BME280;3707;43.618;25.342;2022-09-03T06:19:42;100151.78;;;18.66;100.00
7333;BME280;3707;43.618;25.342;2022-09-03T06:22:09;100145.72;;;18.64;100.00
7333;BME280;3707;43.618;25.342;2022-09-03T06:24:35;100126.66;;;18.48;100.00
7333;BME280;3707;43.618;25.342;2022-09-03T06:27:03;100150.22;;;18.56;100.00
7333;BME280;3707;43.618;25.342;2022-09-03T06:29:30;100160.84;;;18.47;100.00
7333;BME280;3707;43.618;25.342;2022-09-03T06:31:56;100159.16;;;18.41;100.00
7333;BME280;3707;43.618;25.342;2022-09-03T06:34:25;100165.09;;;18.55;100.00
7333;BME280;3707;43.618;25.342;2022-09-03T06:36:52;100169.88;;;18.27;100.00
7333;BME280;3707;43.618;25.342;2022-09-03T06:39:19;100157.34;;;18.46;100.00
7333;BME280;3707;43.618;25.342;2022-09-03T06:41:46;100174.91;;;18.43;100.00
7333;BME280;3707;43.618;25.342;2022-09-03T06:44:16;100168.78;;;18.44;100.00
7333;BME280;3707;43.618;25.342;2022-09-03T06:46:43;100170.34;;;18.57;100.00
7333;BME280;3707;43.618;25.342;2022-09-03T06:49:10;100158.91;;;18.61;100.00
7333;BME280;3707;43.618;25.342;2022-09-03T06:51:39;100172.16;;;18.50;100.00
7333;BME280;3707;43.618;25.342;2022-09-03T06:54:09;100173.91;;;18.53;100.00
7333;BME280;3707;43.618;25.342;2022-09-03T06:56:37;100180.06;;;18.49;100.00
7333;BME280;3707;43.618;25.342;2022-09-03T06:59:06;100176.28;;;18.68;100.00
7333;BME280;3707;43.618;25.342;2022-09-03T07:01:33;100171.66;;;18.82;100.00
7333;BME280;3707;43.618;25.342;2022-09-03T07:04:01;100180.47;;;18.79;100.00
7333;BME280;3707;43.618;25.342;2022-09-03T07:06:30;100186.31;;;18.95;100.00
7333;BME280;3707;43.618;25.342;2022-09-03T07:08:59;100138.75;;;18.61;100.00
7333;BME280;3707;43.618;25.342;2022-09-03T07:11:27;100189.13;;;18.86;100.00
7333;BME280;3707;43.618;25.342;2022-09-03T07:13:56;100152.88;;;18.53;100.00
7333;BME280;3707;43.618;25.342;2022-09-03T07:16:24;100172.22;;;18.46;100.00
7333;BME280;3707;43.618;25.342;2022-09-03T07:18:52;100179.84;;;18.64;100.00
7333;BME280;3707;43.618;25.342;2022-09-03T07:21:20;100189.16;;;18.83;100.00
7333;BME280;3707;43.618;25.342;2022-09-03T07:23:49;100171.09;;;18.63;100.00
7333;BME280;3707;43.618;25.342;2022-09-03T07:26:19;100182.94;;;18.89;100.00
7333;BME280;3707;43.618;25.342;2022-09-03T07:28:46;100198.41;;;19.05;100.00
7333;BME280;3707;43.618;25.342;2022-09-03T07:31:15;100204.25;;;19.22;100.00
7333;BME280;3707;43.618;25.342;2022-09-03T07:33:43;100208.38;;;19.36;100.00
7333;BME280;3707;43.618;25.342;2022-09-03T07:36:12;100190.38;;;19.62;100.00
7333;BME280;3707;43.618;25.342;2022-09-03T07:38:40;100198.03;;;19.72;100.00
7333;BME280;3707;43.618;25.342;2022-09-03T07:41:08;100188.63;;;20.02;100.00
7333;BME280;3707;43.618;25.342;2022-09-03T07:43:38;100233.16;;;20.53;100.00
7333;BME280;3707;43.618;25.342;2022-09-03T07:46:05;100243.31;;;20.31;100.00
7333;BME280;3707;43.618;25.342;2022-09-03T07:48:33;100244.75;;;20.46;100.00
7333;BME280;3707;43.618;25.342;2022-09-03T07:50:59;100250.78;;;20.51;100.00
7333;BME280;3707;43.618;25.342;2022-09-03T07:53:27;100239.88;;;20.66;100.00
7333;BME280;3707;43.618;25.342;2022-09-03T07:56:00;100245.50;;;20.88;100.00
7333;BME280;3707;43.618;25.342;2022-09-03T07:58:28;100243.81;;;20.85;100.00
7333;BME280;3707;43.618;25.342;2022-09-03T08:00:57;100256.72;;;20.96;100.00
7333;BME280;3707;43.618;25.342;2022-09-03T08:03:24;100255.72;;;20.64;100.00
7333;BME280;3707;43.618;25.342;2022-09-03T08:05:51;100238.09;;;20.66;100.00
7333;BME280;3707;43.618;25.342;2022-09-03T08:08:18;100235.13;;;20.80;100.00
7333;BME280;3707;43.618;25.342;2022-09-03T08:10:45;100233.19;;;20.88;100.00
7333;BME280;3707;43.618;25.342;2022-09-03T08:13:12;100243.91;;;21.17;100.00
7333;BME280;3707;43.618;25.342;2022-09-03T08:15:38;100256.84;;;21.26;100.00
7333;BME280;3707;43.618;25.342;2022-09-03T08:18:08;100257.06;;;21.51;100.00
7333;BME280;3707;43.618;25.342;2022-09-03T08:20:36;100216.47;;;21.24;100.00
7333;BME280;3707;43.618;25.342;2022-09-03T08:23:04;100259.56;;;21.57;100.00
7333;BME280;3707;43.618;25.342;2022-09-03T08:25:31;100248.44;;;21.45;100.00
7333;BME280;3707;43.618;25.342;2022-09-03T08:27:58;100246.75;;;21.44;100.00
7333;BME280;3707;43.618;25.342;2022-09-03T08:30:26;100259.66;;;21.20;100.00
7333;BME280;3707;43.618;25.342;2022-09-03T08:32:53;100262.72;;;21.38;100.00
7333;BME280;3707;43.618;25.342;2022-09-03T08:35:22;100245.53;;;21.55;100.00
7333;BME280;3707;43.618;25.342;2022-09-03T08:37:49;100271.38;;;21.75;100.00
7333;BME280;3707;43.618;25.342;2022-09-03T08:40:19;100284.28;;;21.53;100.00
7333;BME280;3707;43.618;25.342;2022-09-03T08:42:57;100279.72;;;21.60;100.00
7333;BME280;3707;43.618;25.342;2022-09-03T08:45:33;100268.03;;;21.36;100.00
7333;BME280;3707;43.618;25.342;2022-09-03T08:48:04;100263.78;;;21.31;100.00
7333;BME280;3707;43.618;25.342;2022-09-03T08:50:37;100280.59;;;21.26;100.00
7333;BME280;3707;43.618;25.342;2022-09-03T08:53:10;100271.66;;;21.32;100.00
7333;BME280;3707;43.618;25.342;2022-09-03T08:55:42;100265.59;;;21.29;100.00
7333;BME280;3707;43.618;25.342;2022-09-03T08:58:14;100267.41;;;21.26;100.00
7333;BME280;3707;43.618;25.342;2022-09-03T09:00:47;100235.38;;;21.05;100.00
7333;BME280;3707;43.618;25.342;2022-09-03T09:03:37;100274.19;;;21.37;100.00
7333;BME280;3707;43.618;25.342;2022-09-03T09:06:17;100285.47;;;21.06;100.00
7333;BME280;3707;43.618;25.342;2022-09-03T09:08:54;100280.72;;;20.85;100.00
7333;BME280;3707;43.618;25.342;2022-09-03T09:11:31;100288.06;;;20.71;100.00
7333;BME280;3707;43.618;25.342;2022-09-03T09:14:11;100261.66;;;20.74;100.00
7333;BME280;3707;43.618;25.342;2022-09-03T09:16:46;100282.94;;;21.02;100.00
7333;BME280;3707;43.618;25.342;2022-09-03T09:19:30;100288.63;;;20.84;100.00
7333;BME280;3707;43.618;25.342;2022-09-03T09:22:06;100279.81;;;20.86;100.00
7333;BME280;3707;43.618;25.342;2022-09-03T09:24:38;100286.22;;;21.13;100.00
7333;BME280;3707;43.618;25.342;2022-09-03T09:27:07;100288.56;;;21.23;100.00
7333;BME280;3707;43.618;25.342;2022-09-03T09:29:36;100296.88;;;21.44;100.00
7333;BME280;3707;43.618;25.342;2022-09-03T09:32:06;100298.00;;;20.97;100.00
7333;BME280;3707;43.618;25.342;2022-09-03T09:34:34;100302.03;;;21.13;100.00
7333;BME280;3707;43.618;25.342;2022-09-03T09:37:05;100302.91;;;21.13;100.00
7333;BME280;3707;43.618;25.342;2022-09-03T09:39:34;100298.50;;;21.14;100.00
7333;BME280;3707;43.618;25.342;2022-09-03T09:42:04;100308.50;;;20.98;100.00
7333;BME280;3707;43.618;25.342;2022-09-03T09:44:34;100299.25;;;20.82;100.00
7333;BME280;3707;43.618;25.342;2022-09-03T09:47:03;100288.22;;;20.65;100.00
7333;BME280;3707;43.618;25.342;2022-09-03T09:49:33;100304.59;;;20.79;100.00
7333;BME280;3707;43.618;25.342;2022-09-03T09:52:04;100285.97;;;20.85;100.00
7333;BME280;3707;43.618;25.342;2022-09-03T09:54:32;100289.94;;;20.66;100.00
7333;BME280;3707;43.618;25.342;2022-09-03T09:57:01;100313.13;;;20.89;100.00
7333;BME280;3707;43.618;25.342;2022-09-03T09:59:29;100323.91;;;20.80;100.00
7333;BME280;3707;43.618;25.342;2022-09-03T10:02:11;100316.34;;;21.01;100.00
7333;BME280;3707;43.618;25.342;2022-09-03T10:04:39;100324.31;;;20.98;100.00
7333;BME280;3707;43.618;25.342;2022-09-03T10:07:22;100327.03;;;20.95;100.00
7333;BME280;3707;43.618;25.342;2022-09-03T10:10:00;100311.78;;;20.72;100.00
7333;BME280;3707;43.618;25.342;2022-09-03T10:12:30;100326.09;;;20.98;100.00
7333;BME280;3707;43.618;25.342;2022-09-03T10:15:07;100334.78;;;21.03;100.00
7333;BME280;3707;43.618;25.342;2022-09-03T10:17:43;100340.38;;;20.88;100.00
7333;BME280;3707;43.618;25.342;2022-09-03T10:20:14;100339.41;;;20.92;100.00
7333;BME280;3707;43.618;25.342;2022-09-03T10:22:59;100292.75;;;20.97;100.00
7333;BME280;3707;43.618;25.342;2022-09-03T10:25:35;100345.06;;;21.50;100.00
7333;BME280;3707;43.618;25.342;2022-09-03T10:28:06;100354.41;;;21.62;100.00
7333;BME280;3707;43.618;25.342;2022-09-03T10:30:45;100363.47;;;21.52;100.00
7333;BME280;3707;43.618;25.342;2022-09-03T10:33:22;100367.09;;;21.12;100.00
7333;BME280;3707;43.618;25.342;2022-09-03T10:36:03;100356.97;;;20.93;100.00
7333;BME280;3707;43.618;25.342;2022-09-03T10:38:34;100321.78;;;20.57;100.00
7333;BME280;3707;43.618;25.342;2022-09-03T10:41:13;100353.47;;;20.54;100.00
7333;BME280;3707;43.618;25.342;2022-09-03T10:44:03;100349.25;;;20.45;100.00
7333;BME280;3707;43.618;25.342;2022-09-03T10:46:43;100350.03;;;20.49;100.00
7333;BME280;3707;43.618;25.342;2022-09-03T10:49:19;100360.88;;;20.35;100.00
7333;BME280;3707;43.618;25.342;2022-09-03T10:51:56;100352.31;;;20.22;100.00
7333;BME280;3707;43.618;25.342;2022-09-03T10:54:38;100363.59;;;20.31;100.00
7333;BME280;3707;43.618;25.342;2022-09-03T10:57:16;100357.50;;;20.28;100.00
7333;BME280;3707;43.618;25.342;2022-09-03T10:59:57;100347.34;;;20.07;100.00
7333;BME280;3707;43.618;25.342;2022-09-03T11:02:41;100338.78;;;19.96;100.00
7333;BME280;3707;43.618;25.342;2022-09-03T11:05:14;100326.66;;;19.89;100.00
7333;BME280;3707;43.618;25.342;2022-09-03T11:07:45;100359.50;;;20.14;100.00
7333;BME280;3707;43.618;25.342;2022-09-03T11:10:18;100366.53;;;20.14;100.00
7333;BME280;3707;43.618;25.342;2022-09-03T11:12:50;100353.34;;;20.15;100.00
7333;BME280;3707;43.618;25.342;2022-09-03T11:15:23;100361.06;;;19.77;100.00
7333;BME280;3707;43.618;25.342;2022-09-03T11:17:57;100361.56;;;19.99;100.00
7333;BME280;3707;43.618;25.342;2022-09-03T11:20:27;100349.47;;;19.87;100.00
7333;BME280;3707;43.618;25.342;2022-09-03T11:22:56;100352.63;;;20.07;100.00
7333;BME280;3707;43.618;25.342;2022-09-03T11:25:30;100364.56;;;20.23;100.00
7333;BME280;3707;43.618;25.342;2022-09-03T11:28:07;100386.19;;;20.42;100.00
7333;BME280;3707;43.618;25.342;2022-09-03T11:30:47;100374.69;;;20.46;100.00
7333;BME280;3707;43.618;25.342;2022-09-03T11:33:20;100373.16;;;20.35;100.00
7333;BME280;3707;43.618;25.342;2022-09-03T11:35:55;100384.88;;;20.63;100.00
7333;BME280;3707;43.618;25.342;2022-09-03T11:38:26;100388.50;;;20.57;100.00
7333;BME280;3707;43.618;25.342;2022-09-03T11:41:11;100392.88;;;20.98;100.00
7333;BME280;3707;43.618;25.342;2022-09-03T11:43:39;100394.41;;;21.08;100.00
7333;BME280;3707;43.618;25.342;2022-09-03T11:46:08;100404.16;;;21.05;100.00
7333;BME280;3707;43.618;25.342;2022-09-03T11:48:40;100380.63;;;20.97;100.00
7333;BME280;3707;43.618;25.342;2022-09-03T11:51:19;100396.81;;;21.19;100.00
7333;BME280;3707;43.618;25.342;2022-09-03T11:53:54;100386.63;;;21.02;100.00
7333;BME280;3707;43.618;25.342;2022-09-03T11:56:23;100376.25;;;20.96;100.00
7333;BME280;3707;43.618;25.342;2022-09-03T11:59:19;100364.16;;;20.86;100.00
7333;BME280;3707;43.618;25.342;2022-09-03T12:01:51;100389.75;;;21.21;100.00
7333;BME280;3707;43.618;25.342;2022-09-03T12:04:23;100406.66;;;21.12;100.00
7333;BME280;3707;43.618;25.342;2022-09-03T12:07:07;100398.19;;;20.97;100.00
7333;BME280;3707;43.618;25.342;2022-09-03T12:09:51;100400.50;;;21.12;100.00
7333;BME280;3707;43.618;25.342;2022-09-03T12:12:49;100396.91;;;21.53;100.00
7333;BME280;3707;43.618;25.342;2022-09-03T12:15:29;100399.97;;;21.70;100.00
7333;BME280;3707;43.618;25.342;2022-09-03T12:18:06;100407.16;;;21.65;100.00
7333;BME280;3707;43.618;25.342;2022-09-03T12:20:47;100405.72;;;21.52;100.00
7333;BME280;3707;43.618;25.342;2022-09-03T12:23:26;100381.66;;;21.29;100.00
7333;BME280;3707;43.618;25.342;2022-09-03T12:25:54;100387.19;;;21.18;100.00
7333;BME280;3707;43.618;25.342;2022-09-03T12:28:23;100391.16;;;20.97;100.00
7333;BME280;3707;43.618;25.342;2022-09-03T12:30:52;100380.38;;;20.68;100.00
7333;BME280;3707;43.618;25.342;2022-09-03T12:33:21;100398.28;;;20.92;100.00
7333;BME280;3707;43.618;25.342;2022-09-03T12:35:55;100398.47;;;20.85;100.00
7333;BME280;3707;43.618;25.342;2022-09-03T12:38:23;100370.81;;;20.64;100.00
7333;BME280;3707;43.618;25.342;2022-09-03T12:40:50;100402.75;;;20.90;100.00
7333;BME280;3707;43.618;25.342;2022-09-03T12:43:18;100392.88;;;20.98;100.00
7333;BME280;3707;43.618;25.342;2022-09-03T12:45:47;100403.25;;;21.06;100.00
7333;BME280;3707;43.618;25.342;2022-09-03T12:48:17;100405.69;;;21.16;100.00
7333;BME280;3707;43.618;25.342;2022-09-03T12:50:46;100396.16;;;21.11;100.00
7333;BME280;3707;43.618;25.342;2022-09-03T12:53:16;100404.63;;;21.23;100.00
7333;BME280;3707;43.618;25.342;2022-09-03T12:55:48;100375.28;;;20.99;100.00
7333;BME280;3707;43.618;25.342;2022-09-03T12:58:21;100400.09;;;20.90;100.00
7333;BME280;3707;43.618;25.342;2022-09-03T13:00:53;100405.25;;;20.95;100.00
7333;BME280;3707;43.618;25.342;2022-09-03T13:03:27;100402.84;;;20.86;100.00
7333;BME280;3707;43.618;25.342;2022-09-03T13:05:57;100383.66;;;20.79;100.00
7333;BME280;3707;43.618;25.342;2022-09-03T13:08:28;100403.22;;;21.07;100.00
7333;BME280;3707;43.618;25.342;2022-09-03T13:10:57;100402.25;;;21.13;100.00
7333;BME280;3707;43.618;25.342;2022-09-03T13:13:26;100399.66;;;21.08;100.00